createdAt,value
2018-12-08T00:00:53.587Z,993.70
2018-12-08T00:01:53.569Z,993.72
2018-12-08T00:02:53.552Z,993.67
2018-12-08T00:03:53.525Z,993.75
2018-12-08T00:04:53.514Z,993.71
2018-12-08T00:05:53.488Z,993.65
2018-12-08T00:06:53.469Z,993.77
2018-12-08T00:07:53.448Z,993.75
2018-12-08T00:08:53.427Z,993.71
2018-12-08T00:09:53.407Z,993.76
2018-12-08T00:10:53.387Z,993.76
2018-12-08T00:11:53.372Z,993.72
2018-12-08T00:12:53.350Z,993.66
2018-12-08T00:13:53.329Z,993.67
2018-12-08T00:14:53.307Z,993.72
2018-12-08T00:15:53.287Z,993.74
2018-12-08T00:16:53.278Z,993.74
2018-12-08T00:17:53.252Z,993.69
2018-12-08T00:18:53.228Z,993.70
2018-12-08T00:19:53.214Z,993.72
2018-12-08T00:20:53.193Z,993.80
2018-12-08T00:21:53.172Z,993.76
2018-12-08T00:22:53.152Z,993.84
2018-12-08T00:23:53.129Z,993.81
2018-12-08T00:24:53.114Z,993.86
2018-12-08T00:25:53.091Z,993.87
2018-12-08T00:26:53.072Z,993.91
2018-12-08T00:27:53.050Z,993.86
2018-12-08T00:28:53.035Z,993.88
2018-12-08T00:29:53.049Z,993.85
2018-12-08T00:30:52.991Z,993.82
2018-12-08T00:31:52.973Z,993.90
2018-12-08T00:32:52.955Z,993.83
2018-12-08T00:33:52.932Z,993.98
2018-12-08T00:34:52.915Z,993.91
2018-12-08T00:35:52.892Z,993.85
2018-12-08T00:36:52.876Z,993.90
2018-12-08T00:37:52.856Z,993.86
2018-12-08T00:38:52.834Z,993.91
2018-12-08T00:39:52.814Z,993.86
2018-12-08T00:40:52.794Z,993.82
2018-12-08T00:41:52.774Z,993.82
2018-12-08T00:42:52.759Z,993.89
2018-12-08T00:43:52.735Z,993.96
2018-12-08T00:44:52.716Z,993.85
2018-12-08T00:45:52.693Z,994.09
2018-12-08T00:46:52.678Z,993.87
2018-12-08T00:47:52.659Z,993.90
2018-12-08T00:48:52.638Z,993.93
2018-12-08T00:49:52.622Z,993.96
2018-12-08T00:50:52.596Z,993.99
2018-12-08T00:51:52.573Z,993.93
2018-12-08T00:52:52.556Z,993.91
2018-12-08T00:53:52.539Z,993.96
2018-12-08T00:54:52.519Z,993.87
2018-12-08T00:55:52.495Z,993.88
2018-12-08T00:56:52.481Z,993.89
2018-12-08T00:57:52.462Z,993.87
2018-12-08T00:58:52.439Z,993.85
2018-12-08T00:59:52.417Z,993.87
2018-12-08T01:00:52.407Z,993.90
2018-12-08T01:01:52.379Z,993.83
2018-12-08T01:02:52.359Z,993.84
2018-12-08T01:03:52.342Z,993.91
2018-12-08T01:04:52.325Z,993.87
2018-12-08T01:05:52.302Z,993.84
2018-12-08T01:06:52.279Z,993.89
2018-12-08T01:07:52.257Z,993.73
2018-12-08T01:08:52.239Z,993.75
2018-12-08T01:09:52.221Z,993.76
2018-12-08T01:10:52.200Z,993.76
2018-12-08T01:11:52.180Z,993.80
2018-12-08T01:12:52.162Z,993.79
2018-12-08T01:13:52.140Z,993.84
2018-12-08T01:14:52.122Z,993.83
2018-12-08T01:15:52.100Z,993.84
2018-12-08T01:16:52.080Z,993.89
2018-12-08T01:17:52.059Z,993.88
2018-12-08T01:18:52.037Z,993.82
2018-12-08T01:19:52.026Z,993.91
2018-12-08T01:20:52.001Z,993.86
2018-12-08T01:21:51.981Z,993.81
2018-12-08T01:22:51.955Z,993.78
2018-12-08T01:23:51.940Z,993.78
2018-12-08T01:24:51.920Z,993.77
2018-12-08T01:25:51.901Z,993.74
2018-12-08T01:26:51.878Z,993.75
2018-12-08T01:27:51.859Z,993.71
2018-12-08T01:28:51.847Z,993.77
2018-12-08T01:29:51.825Z,993.73
2018-12-08T01:30:51.800Z,993.82
2018-12-08T01:31:51.780Z,993.80
2018-12-08T01:32:51.759Z,993.83
2018-12-08T01:33:51.740Z,993.83
2018-12-08T01:34:51.720Z,993.90
2018-12-08T01:35:51.703Z,993.92
2018-12-08T01:36:51.685Z,993.96
2018-12-08T01:37:51.666Z,993.93
2018-12-08T01:38:51.642Z,993.98
2018-12-08T01:39:51.620Z,993.96
2018-12-08T01:40:51.601Z,993.96
2018-12-08T01:41:51.580Z,993.97
2018-12-08T01:42:51.563Z,994.03
2018-12-08T01:43:51.542Z,993.97
2018-12-08T01:44:51.525Z,993.94
2018-12-08T01:45:51.502Z,993.92
2018-12-08T01:46:51.486Z,993.96
2018-12-08T01:47:51.463Z,993.92
2018-12-08T01:48:51.445Z,993.96
2018-12-08T01:49:51.426Z,993.96
2018-12-08T01:50:51.402Z,993.97
2018-12-08T01:51:51.386Z,994.00
2018-12-08T01:52:51.366Z,994.01
2018-12-08T01:53:51.344Z,994.06
2018-12-08T01:54:51.326Z,994.02
2018-12-08T01:55:51.300Z,994.10
2018-12-08T01:56:51.286Z,994.14
2018-12-08T01:57:51.260Z,994.17
2018-12-08T01:58:51.241Z,994.14
2018-12-08T01:59:51.220Z,994.12
2018-12-08T02:00:51.204Z,994.12
2018-12-08T02:01:51.180Z,994.08
2018-12-08T02:02:51.161Z,994.08
2018-12-08T02:03:52.868Z,994.05
2018-12-08T02:04:51.125Z,993.99
2018-12-08T02:05:51.102Z,994.06
2018-12-08T02:06:51.080Z,994.05
2018-12-08T02:07:51.061Z,993.98
2018-12-08T02:08:51.042Z,994.02
2018-12-08T02:09:51.023Z,994.00
2018-12-08T02:10:51.001Z,994.12
2018-12-08T02:11:50.983Z,994.05
2018-12-08T02:12:50.960Z,994.18
2018-12-08T02:13:50.941Z,994.11
2018-12-08T02:14:50.921Z,994.17
2018-12-08T02:15:50.901Z,994.15
2018-12-08T02:16:50.883Z,994.17
2018-12-08T02:17:50.866Z,994.17
2018-12-08T02:18:50.839Z,994.22
2018-12-08T02:19:50.823Z,994.18
2018-12-08T02:20:50.799Z,994.12
2018-12-08T02:21:50.780Z,994.22
2018-12-08T02:22:50.760Z,994.25
2018-12-08T02:23:50.742Z,994.14
2018-12-08T02:24:50.727Z,994.14
2018-12-08T02:25:50.703Z,994.15
2018-12-08T02:26:50.685Z,994.18
2018-12-08T02:27:50.665Z,994.01
2018-12-08T02:28:50.647Z,993.99
2018-12-08T02:29:50.624Z,993.93
2018-12-08T02:30:50.600Z,993.92
2018-12-08T02:31:50.583Z,993.77
2018-12-08T02:32:50.565Z,993.80
2018-12-08T02:33:50.543Z,993.81
2018-12-08T02:34:50.523Z,993.84
2018-12-08T02:35:50.503Z,993.77
2018-12-08T02:36:50.484Z,993.77
2018-12-08T02:37:50.471Z,993.78
2018-12-08T02:38:50.441Z,993.84
2018-12-08T02:39:50.431Z,993.73
2018-12-08T02:40:50.404Z,993.73
2018-12-08T02:41:50.385Z,993.69
2018-12-08T02:42:50.366Z,993.76
2018-12-08T02:43:50.344Z,993.57
2018-12-08T02:44:50.336Z,993.64
2018-12-08T02:45:50.307Z,993.64
2018-12-08T02:46:50.288Z,993.62
2018-12-08T02:47:50.270Z,993.61
2018-12-08T02:48:50.244Z,993.59
2018-12-08T02:49:50.229Z,993.58
2018-12-08T02:50:50.206Z,993.64
2018-12-08T02:51:50.187Z,993.67
2018-12-08T02:52:50.163Z,993.62
2018-12-08T02:53:50.151Z,993.63
2018-12-08T02:54:50.122Z,993.68
2018-12-08T02:55:50.102Z,993.66
2018-12-08T02:56:50.086Z,993.67
2018-12-08T02:57:50.070Z,993.69
2018-12-08T02:58:50.043Z,993.59
2018-12-08T02:59:50.032Z,993.69
2018-12-08T03:00:50.011Z,993.61
2018-12-08T03:01:49.987Z,993.62
2018-12-08T03:02:49.966Z,993.63
2018-12-08T03:03:49.945Z,993.65
2018-12-08T03:04:49.927Z,993.52
2018-12-08T03:05:49.906Z,993.49
2018-12-08T03:06:49.884Z,993.52
2018-12-08T03:07:49.867Z,993.50
2018-12-08T03:08:49.849Z,993.41
2018-12-08T03:09:49.825Z,993.50
2018-12-08T03:10:49.804Z,993.48
2018-12-08T03:11:49.789Z,993.40
2018-12-08T03:12:49.768Z,993.34
2018-12-08T03:13:49.743Z,993.37
2018-12-08T03:14:49.848Z,993.43
2018-12-08T03:15:49.713Z,993.38
2018-12-08T03:16:49.688Z,993.28
2018-12-08T03:17:49.663Z,993.36
2018-12-08T03:18:49.645Z,993.34
2018-12-08T03:19:49.635Z,993.33
2018-12-08T03:20:49.610Z,993.25
2018-12-08T03:21:49.591Z,993.28
2018-12-08T03:22:49.567Z,993.29
2018-12-08T03:23:49.551Z,993.21
2018-12-08T03:24:49.528Z,993.22
2018-12-08T03:25:49.508Z,993.23
2018-12-08T03:26:49.487Z,993.22
2018-12-08T03:27:49.466Z,993.29
2018-12-08T03:28:49.448Z,993.18
2018-12-08T03:29:49.428Z,993.31
2018-12-08T03:30:49.408Z,993.26
2018-12-08T03:31:49.389Z,993.29
2018-12-08T03:32:49.375Z,993.16
2018-12-08T03:33:49.351Z,993.08
2018-12-08T03:34:49.330Z,993.17
2018-12-08T03:35:49.309Z,993.17
2018-12-08T03:36:49.292Z,993.14
2018-12-08T03:37:49.276Z,993.16
2018-12-08T03:38:49.252Z,993.16
2018-12-08T03:39:49.233Z,993.10
2018-12-08T03:40:49.220Z,993.10
2018-12-08T03:41:49.193Z,993.04
2018-12-08T03:42:49.181Z,993.05
2018-12-08T03:43:49.153Z,993.13
2018-12-08T03:44:49.141Z,993.05
2018-12-08T03:45:49.115Z,993.13
2018-12-08T03:46:49.095Z,993.08
2018-12-08T03:47:49.075Z,993.10
2018-12-08T03:48:49.053Z,993.09
2018-12-08T03:49:49.038Z,993.14
2018-12-08T03:50:49.017Z,993.04
2018-12-08T03:51:48.999Z,993.06
2018-12-08T03:52:48.975Z,993.08
2018-12-08T03:53:48.961Z,993.12
2018-12-08T03:54:48.935Z,993.10
2018-12-08T03:55:48.919Z,993.17
2018-12-08T03:56:48.897Z,993.10
2018-12-08T03:57:48.878Z,993.09
2018-12-08T03:58:48.862Z,993.13
2018-12-08T03:59:48.846Z,992.99
2018-12-08T04:00:48.826Z,993.01
2018-12-08T04:01:48.802Z,992.97
2018-12-08T04:02:48.781Z,993.01
2018-12-08T04:03:48.762Z,992.93
2018-12-08T04:04:48.741Z,992.98
2018-12-08T04:05:48.722Z,993.02
2018-12-08T04:06:48.705Z,992.95
2018-12-08T04:07:48.683Z,992.93
2018-12-08T04:08:48.661Z,992.96
2018-12-08T04:09:48.643Z,992.92
2018-12-08T04:10:48.687Z,992.91
2018-12-08T04:11:48.605Z,992.93
2018-12-08T04:12:48.585Z,992.94
2018-12-08T04:13:48.566Z,992.95
2018-12-08T04:14:48.542Z,992.91
2018-12-08T04:15:48.528Z,992.95
2018-12-08T04:16:48.509Z,992.90
2018-12-08T04:17:48.488Z,992.81
2018-12-08T04:18:48.468Z,992.89
2018-12-08T04:19:48.459Z,992.89
2018-12-08T04:20:48.428Z,992.91
2018-12-08T04:21:48.407Z,992.94
2018-12-08T04:22:48.389Z,992.93
2018-12-08T04:23:48.388Z,992.87
2018-12-08T04:24:48.353Z,992.81
2018-12-08T04:25:48.350Z,992.86
2018-12-08T04:26:48.314Z,992.88
2018-12-08T04:27:48.939Z,992.82
2018-12-08T04:28:48.274Z,992.80
2018-12-08T04:29:48.255Z,992.76
2018-12-08T04:30:48.237Z,992.76
2018-12-08T04:31:48.225Z,992.77
2018-12-08T04:32:48.199Z,992.78
2018-12-08T04:33:48.176Z,992.84
2018-12-08T04:34:48.154Z,992.69
2018-12-08T04:35:48.140Z,992.79
2018-12-08T04:36:48.121Z,992.86
2018-12-08T04:37:48.104Z,992.76
2018-12-08T04:38:48.082Z,992.73
2018-12-08T04:39:48.062Z,992.76
2018-12-08T04:40:48.045Z,992.81
2018-12-08T04:41:48.025Z,992.85
2018-12-08T04:42:48.008Z,992.82
2018-12-08T04:43:47.994Z,992.81
2018-12-08T04:44:47.966Z,992.80
2018-12-08T04:45:47.946Z,992.82
2018-12-08T04:46:47.926Z,992.79
2018-12-08T04:47:47.907Z,992.72
2018-12-08T04:48:47.891Z,992.77
2018-12-08T04:49:47.873Z,992.77
2018-12-08T04:50:47.856Z,992.72
2018-12-08T04:51:47.831Z,992.76
2018-12-08T04:52:47.815Z,992.70
2018-12-08T04:53:47.796Z,992.73
2018-12-08T04:54:47.772Z,992.73
2018-12-08T04:55:47.762Z,992.68
2018-12-08T04:56:47.736Z,992.69
2018-12-08T04:57:47.717Z,992.63
2018-12-08T04:58:47.700Z,992.69
2018-12-08T04:59:47.679Z,992.65
2018-12-08T05:00:47.660Z,992.56
2018-12-08T05:01:47.639Z,992.74
2018-12-08T05:02:47.629Z,992.62
2018-12-08T05:03:47.604Z,992.63
2018-12-08T05:04:47.586Z,992.68
2018-12-08T05:05:47.571Z,992.63
2018-12-08T05:06:47.543Z,992.68
2018-12-08T05:07:47.527Z,992.62
2018-12-08T05:08:47.511Z,992.59
2018-12-08T05:09:47.495Z,992.62
2018-12-08T05:10:47.468Z,992.57
2018-12-08T05:11:47.448Z,992.54
2018-12-08T05:12:47.432Z,992.47
2018-12-08T05:13:47.412Z,992.58
2018-12-08T05:14:47.396Z,992.50
2018-12-08T05:15:47.374Z,992.48
2018-12-08T05:16:47.414Z,992.43
2018-12-08T05:17:47.334Z,992.48
2018-12-08T05:18:47.315Z,992.51
2018-12-08T05:19:47.301Z,992.41
2018-12-08T05:20:47.277Z,992.46
2018-12-08T05:21:47.258Z,992.54
2018-12-08T05:22:47.241Z,992.51
2018-12-08T05:23:47.222Z,992.60
2018-12-08T05:24:47.203Z,992.53
2018-12-08T05:25:47.185Z,992.49
2018-12-08T05:26:47.163Z,992.50
2018-12-08T05:27:47.143Z,992.42
2018-12-08T05:28:47.124Z,992.47
2018-12-08T05:29:47.105Z,992.46
2018-12-08T05:30:47.085Z,992.39
2018-12-08T05:31:47.066Z,992.49
2018-12-08T05:32:47.046Z,992.39
2018-12-08T05:33:47.030Z,992.41
2018-12-08T05:34:47.012Z,992.40
2018-12-08T05:35:46.992Z,992.40
2018-12-08T05:36:46.979Z,992.32
2018-12-08T05:37:46.957Z,992.50
2018-12-08T05:38:46.937Z,992.43
2018-12-08T05:39:46.914Z,992.38
2018-12-08T05:40:46.897Z,992.37
2018-12-08T05:41:46.876Z,992.41
2018-12-08T05:42:46.866Z,992.42
2018-12-08T05:43:46.840Z,992.39
2018-12-08T05:44:46.823Z,992.34
2018-12-08T05:45:46.804Z,992.31
2018-12-08T05:46:46.782Z,992.37
2018-12-08T05:47:46.767Z,992.38
2018-12-08T05:48:46.745Z,992.43
2018-12-08T05:49:46.734Z,992.31
2018-12-08T05:50:46.707Z,992.41
2018-12-08T05:51:46.688Z,992.27
2018-12-08T05:52:46.667Z,992.29
2018-12-08T05:53:46.650Z,992.28
2018-12-08T05:54:46.631Z,992.28
2018-12-08T05:55:46.610Z,992.27
2018-12-08T05:56:46.593Z,992.27
2018-12-08T05:57:46.574Z,992.31
2018-12-08T05:58:46.552Z,992.29
2018-12-08T05:59:46.530Z,992.28
2018-12-08T06:00:46.522Z,992.38
2018-12-08T06:01:46.525Z,992.26
2018-12-08T06:02:46.518Z,992.25
2018-12-08T06:03:46.462Z,992.28
2018-12-08T06:04:46.434Z,992.27
2018-12-08T06:05:46.418Z,992.27
2018-12-08T06:06:46.403Z,992.33
2018-12-08T06:07:46.379Z,992.40
2018-12-08T06:08:46.360Z,992.36
2018-12-08T06:09:46.342Z,992.31
2018-12-08T06:10:46.322Z,992.32
2018-12-08T06:11:46.302Z,992.25
2018-12-08T06:12:46.284Z,992.27
2018-12-08T06:13:46.265Z,992.15
2018-12-08T06:14:46.244Z,992.20
2018-12-08T06:15:46.225Z,992.15
2018-12-08T06:16:46.204Z,992.19
2018-12-08T06:17:46.188Z,992.22
2018-12-08T06:18:46.167Z,992.34
2018-12-08T06:19:46.153Z,992.14
2018-12-08T06:20:46.130Z,992.22
2018-12-08T06:21:46.110Z,992.27
2018-12-08T06:22:46.089Z,992.28
2018-12-08T06:23:46.075Z,992.23
2018-12-08T06:24:46.056Z,992.21
2018-12-08T06:25:46.033Z,992.27
2018-12-08T06:26:46.012Z,992.23
2018-12-08T06:27:45.993Z,992.24
2018-12-08T06:28:45.982Z,992.28
2018-12-08T06:29:45.983Z,992.20
2018-12-08T06:30:45.936Z,992.24
2018-12-08T06:31:45.916Z,992.28
2018-12-08T06:32:45.897Z,992.27
2018-12-08T06:33:45.881Z,992.29
2018-12-08T06:34:45.859Z,992.18
2018-12-08T06:35:45.840Z,992.24
2018-12-08T06:36:45.824Z,992.19
2018-12-08T06:37:45.799Z,992.22
2018-12-08T06:38:45.787Z,992.25
2018-12-08T06:39:45.765Z,992.26
2018-12-08T06:40:45.744Z,992.18
2018-12-08T06:41:45.725Z,992.16
2018-12-08T06:42:45.705Z,992.05
2018-12-08T06:43:45.687Z,992.19
2018-12-08T06:44:45.670Z,992.11
2018-12-08T06:45:45.648Z,992.06
2018-12-08T06:46:45.626Z,992.11
2018-12-08T06:47:45.610Z,992.13
2018-12-08T06:48:45.589Z,992.14
2018-12-08T06:49:45.572Z,992.13
2018-12-08T06:50:45.550Z,991.96
2018-12-08T06:51:45.533Z,992.02
2018-12-08T06:52:45.580Z,991.93
2018-12-08T06:53:45.496Z,991.89
2018-12-08T06:54:45.473Z,991.90
2018-12-08T06:55:45.454Z,991.95
2018-12-08T06:56:45.438Z,991.94
2018-12-08T06:57:45.417Z,991.94
2018-12-08T06:58:45.395Z,992.00
2018-12-08T06:59:45.376Z,991.91
2018-12-08T07:00:45.358Z,991.98
2018-12-08T07:01:45.340Z,991.98
2018-12-08T07:02:45.323Z,991.94
2018-12-08T07:03:45.308Z,991.87
2018-12-08T07:04:45.279Z,991.89
2018-12-08T07:05:45.260Z,991.83
2018-12-08T07:06:45.243Z,991.88
2018-12-08T07:07:45.222Z,991.81
2018-12-08T07:08:45.203Z,991.79
2018-12-08T07:09:45.185Z,991.88
2018-12-08T07:10:45.163Z,991.86
2018-12-08T07:11:45.145Z,991.79
2018-12-08T07:12:45.126Z,991.80
2018-12-08T07:13:45.106Z,991.82
2018-12-08T07:14:45.089Z,991.83
2018-12-08T07:15:45.068Z,991.89
2018-12-08T07:16:45.052Z,991.98
2018-12-08T07:17:45.030Z,991.82
2018-12-08T07:18:45.009Z,991.81
2018-12-08T07:19:45.000Z,991.80
2018-12-08T07:20:44.971Z,991.80
2018-12-08T07:21:44.953Z,991.83
2018-12-08T07:22:44.934Z,991.78
2018-12-08T07:23:44.914Z,991.73
2018-12-08T07:24:44.895Z,991.75
2018-12-08T07:25:44.875Z,991.73
2018-12-08T07:26:44.855Z,991.81
2018-12-08T07:27:44.839Z,991.74
2018-12-08T07:28:44.812Z,991.76
2018-12-08T07:29:44.892Z,991.82
2018-12-08T07:30:44.778Z,991.85
2018-12-08T07:31:44.760Z,991.85
2018-12-08T07:32:44.740Z,991.85
2018-12-08T07:33:44.721Z,991.80
2018-12-08T07:34:44.699Z,991.79
2018-12-08T07:35:44.681Z,991.73
2018-12-08T07:36:44.662Z,991.74
2018-12-08T07:37:44.643Z,991.79
2018-12-08T07:38:44.621Z,991.76
2018-12-08T07:39:44.603Z,991.78
2018-12-08T07:40:44.584Z,991.62
2018-12-08T07:41:44.566Z,991.74
2018-12-08T07:42:44.547Z,991.78
2018-12-08T07:43:44.527Z,991.67
2018-12-08T07:44:44.508Z,991.72
2018-12-08T07:45:44.490Z,991.72
2018-12-08T07:46:44.473Z,991.70
2018-12-08T07:47:44.449Z,991.73
2018-12-08T07:48:44.432Z,991.70
2018-12-08T07:49:44.418Z,991.77
2018-12-08T07:50:44.391Z,991.81
2018-12-08T07:51:44.376Z,991.71
2018-12-08T07:52:44.349Z,991.65
2018-12-08T07:53:44.338Z,991.71
2018-12-08T07:54:44.314Z,991.63
2018-12-08T07:55:44.298Z,991.59
2018-12-08T07:56:44.276Z,991.70
2018-12-08T07:57:44.264Z,991.63
2018-12-08T07:58:44.240Z,991.69
2018-12-08T07:59:44.219Z,991.71
2018-12-08T08:00:44.199Z,991.66
2018-12-08T08:01:44.179Z,991.74
2018-12-08T08:02:44.161Z,991.70
2018-12-08T08:03:44.206Z,991.72
2018-12-08T08:04:44.189Z,991.71
2018-12-08T08:05:44.104Z,991.69
2018-12-08T08:06:44.081Z,991.69
2018-12-08T08:07:44.063Z,991.62
2018-12-08T08:08:44.045Z,991.67
2018-12-08T08:09:44.027Z,991.70
2018-12-08T08:10:44.006Z,991.70
2018-12-08T08:11:43.986Z,991.61
2018-12-08T08:12:43.970Z,991.57
2018-12-08T08:13:43.948Z,991.70
2018-12-08T08:14:43.927Z,991.65
2018-12-08T08:15:43.907Z,991.67
2018-12-08T08:16:43.890Z,991.64
2018-12-08T08:17:43.875Z,991.52
2018-12-08T08:18:43.851Z,991.64
2018-12-08T08:19:43.837Z,991.58
2018-12-08T08:20:43.812Z,991.68
2018-12-08T08:21:43.793Z,991.56
2018-12-08T08:22:43.772Z,991.55
2018-12-08T08:23:43.754Z,991.50
2018-12-08T08:24:43.738Z,991.46
2018-12-08T08:25:43.715Z,991.56
2018-12-08T08:26:43.698Z,991.48
2018-12-08T08:27:43.678Z,991.58
2018-12-08T08:28:43.657Z,991.58
2018-12-08T08:29:43.641Z,991.52
2018-12-08T08:30:43.621Z,991.52
2018-12-08T08:31:43.964Z,991.53
2018-12-08T08:32:43.580Z,991.53
2018-12-08T08:33:43.565Z,991.51
2018-12-08T08:34:43.544Z,991.55
2018-12-08T08:35:43.523Z,991.53
2018-12-08T08:36:43.506Z,991.48
2018-12-08T08:37:43.484Z,991.48
2018-12-08T08:38:43.463Z,991.40
2018-12-08T08:39:43.445Z,991.49
2018-12-08T08:40:43.426Z,991.41
2018-12-08T08:41:43.415Z,991.43
2018-12-08T08:42:43.388Z,991.42
2018-12-08T08:43:43.366Z,991.31
2018-12-08T08:44:43.352Z,991.40
2018-12-08T08:45:43.340Z,991.39
2018-12-08T08:46:43.312Z,991.36
2018-12-08T08:47:43.290Z,991.36
2018-12-08T08:48:43.275Z,991.32
2018-12-08T08:49:43.260Z,991.44
2018-12-08T08:50:43.234Z,991.34
2018-12-08T08:51:43.217Z,991.32
2018-12-08T08:52:43.196Z,991.47
2018-12-08T08:53:43.179Z,991.33
2018-12-08T08:54:43.157Z,991.26
2018-12-08T08:55:43.138Z,991.26
2018-12-08T08:56:43.122Z,991.38
2018-12-08T08:57:43.100Z,991.26
2018-12-08T08:58:43.080Z,991.36
2018-12-08T08:59:43.062Z,991.25
2018-12-08T09:00:43.043Z,991.36
2018-12-08T09:01:43.025Z,991.39
2018-12-08T09:02:43.008Z,991.38
2018-12-08T09:03:42.989Z,991.35
2018-12-08T09:04:42.967Z,991.33
2018-12-08T09:05:42.951Z,991.37
2018-12-08T09:06:42.931Z,991.34
2018-12-08T09:07:42.906Z,991.33
2018-12-08T09:08:42.889Z,991.30
2018-12-08T09:09:42.870Z,991.38
2018-12-08T09:10:42.861Z,991.33
2018-12-08T09:11:42.831Z,991.24
2018-12-08T09:12:42.813Z,991.24
2018-12-08T09:13:42.803Z,991.18
2018-12-08T09:14:42.778Z,991.15
2018-12-08T09:15:42.759Z,991.09
2018-12-08T09:16:42.756Z,991.05
2018-12-08T09:17:42.730Z,991.07
2018-12-08T09:18:42.696Z,991.03
2018-12-08T09:19:42.686Z,990.85
2018-12-08T09:20:42.661Z,990.98
2018-12-08T09:21:42.642Z,990.96
2018-12-08T09:22:42.619Z,990.89
2018-12-08T09:23:42.603Z,990.99
2018-12-08T09:24:42.585Z,990.98
2018-12-08T09:25:42.633Z,990.94
2018-12-08T09:26:42.544Z,990.87
2018-12-08T09:27:42.533Z,990.91
2018-12-08T09:28:42.508Z,990.91
2018-12-08T09:29:42.492Z,991.00
2018-12-08T09:30:42.469Z,991.00
2018-12-08T09:31:42.444Z,990.96
2018-12-08T09:32:42.429Z,990.91
2018-12-08T09:33:42.410Z,990.92
2018-12-08T09:34:42.390Z,990.98
2018-12-08T09:35:42.404Z,990.93
2018-12-08T09:36:42.349Z,990.99
2018-12-08T09:37:42.332Z,991.01
2018-12-08T09:38:42.312Z,991.00
2018-12-08T09:39:42.292Z,991.00
2018-12-08T09:40:42.273Z,991.08
2018-12-08T09:41:42.256Z,990.94
2018-12-08T09:42:42.236Z,990.99
2018-12-08T09:43:42.215Z,990.96
2018-12-08T09:44:42.201Z,990.94
2018-12-08T09:45:42.265Z,991.18
2018-12-08T09:46:42.161Z,991.01
2018-12-08T09:47:42.138Z,991.01
2018-12-08T09:48:42.348Z,990.98
2018-12-08T09:49:42.105Z,991.01
2018-12-08T09:50:42.081Z,991.08
2018-12-08T09:51:42.062Z,991.02
2018-12-08T09:52:42.043Z,990.96
2018-12-08T09:53:42.024Z,990.90
2018-12-08T09:54:42.003Z,991.03
2018-12-08T09:55:41.989Z,991.03
2018-12-08T09:56:41.967Z,991.13
2018-12-08T09:57:41.946Z,991.06
2018-12-08T09:58:41.929Z,990.90
2018-12-08T09:59:41.905Z,990.99
2018-12-08T10:00:41.888Z,990.95
2018-12-08T10:01:41.871Z,991.02
2018-12-08T10:02:41.849Z,990.93
2018-12-08T10:03:41.834Z,990.99
2018-12-08T10:04:41.811Z,990.99
2018-12-08T10:05:41.793Z,990.91
2018-12-08T10:06:41.772Z,990.94
2018-12-08T10:07:41.751Z,991.00
2018-12-08T10:08:41.734Z,990.94
2018-12-08T10:09:41.718Z,990.93
2018-12-08T10:10:41.696Z,990.96
2018-12-08T10:11:41.678Z,990.91
2018-12-08T10:12:41.658Z,990.90
2018-12-08T10:13:41.638Z,990.90
2018-12-08T10:14:41.626Z,990.84
2018-12-08T10:15:41.601Z,990.91
2018-12-08T10:16:41.582Z,990.95
2018-12-08T10:17:41.559Z,990.87
2018-12-08T10:18:41.542Z,990.97
2018-12-08T10:19:41.529Z,990.91
2018-12-08T10:20:41.555Z,990.90
2018-12-08T10:21:41.493Z,990.95
2018-12-08T10:22:41.495Z,990.92
2018-12-08T10:23:41.446Z,990.95
2018-12-08T10:24:41.430Z,990.92
2018-12-08T10:25:41.407Z,990.92
2018-12-08T10:26:41.387Z,990.94
2018-12-08T10:27:42.735Z,991.01
2018-12-08T10:28:41.350Z,990.95
2018-12-08T10:29:41.334Z,990.99
2018-12-08T10:30:41.308Z,990.92
2018-12-08T10:31:41.291Z,990.89
2018-12-08T10:32:41.272Z,990.85
2018-12-08T10:33:41.255Z,990.97
2018-12-08T10:34:41.236Z,990.95
2018-12-08T10:35:41.214Z,991.03
2018-12-08T10:36:41.195Z,990.87
2018-12-08T10:37:41.177Z,990.91
2018-12-08T10:38:41.157Z,990.90
2018-12-08T10:39:41.138Z,990.86
2018-12-08T10:40:41.125Z,990.82
2018-12-08T10:41:41.103Z,990.85
2018-12-08T10:42:41.081Z,990.85
2018-12-08T10:43:41.061Z,990.83
2018-12-08T10:44:41.066Z,990.87
2018-12-08T10:45:41.023Z,990.86
2018-12-08T10:46:41.006Z,990.89
2018-12-08T10:47:40.988Z,990.89
2018-12-08T10:48:40.969Z,990.96
2018-12-08T10:49:40.950Z,990.92
2018-12-08T10:50:40.930Z,990.97
2018-12-08T10:51:40.907Z,991.14
2018-12-08T10:52:40.888Z,991.07
2018-12-08T10:53:40.872Z,991.00
2018-12-08T10:54:40.849Z,991.03
2018-12-08T10:55:40.834Z,991.04
2018-12-08T10:56:40.812Z,990.90
2018-12-08T10:57:40.789Z,990.95
2018-12-08T10:58:40.774Z,990.87
2018-12-08T10:59:40.754Z,990.86
2018-12-08T11:00:40.738Z,990.85
2018-12-08T11:01:40.717Z,990.92
2018-12-08T11:02:40.698Z,990.90
2018-12-08T11:03:40.675Z,990.93
2018-12-08T11:04:40.658Z,990.82
2018-12-08T11:05:40.640Z,990.85
2018-12-08T11:06:40.621Z,990.83
2018-12-08T11:07:40.605Z,990.91
2018-12-08T11:08:40.581Z,990.91
2018-12-08T11:09:40.563Z,990.90
2018-12-08T11:10:40.551Z,990.91
2018-12-08T11:11:40.525Z,990.92
2018-12-08T11:12:40.513Z,990.81
2018-12-08T11:13:40.487Z,990.89
2018-12-08T11:14:40.469Z,990.80
2018-12-08T11:15:40.451Z,990.89
2018-12-08T11:16:40.432Z,990.88
2018-12-08T11:17:40.415Z,990.87
2018-12-08T11:18:40.394Z,990.91
2018-12-08T11:19:40.375Z,990.98
2018-12-08T11:20:40.356Z,990.98
2018-12-08T11:21:40.335Z,991.03
2018-12-08T11:22:40.307Z,991.00
2018-12-08T11:23:40.297Z,991.01
2018-12-08T11:24:40.278Z,990.98
2018-12-08T11:25:40.260Z,991.11
2018-12-08T11:26:40.246Z,991.02
2018-12-08T11:27:40.222Z,990.93
2018-12-08T11:28:40.203Z,991.05
2018-12-08T11:29:40.189Z,990.97
2018-12-08T11:30:40.169Z,990.94
2018-12-08T11:31:40.149Z,990.95
2018-12-08T11:32:40.128Z,991.01
2018-12-08T11:33:40.110Z,990.91
2018-12-08T11:34:40.090Z,991.02
2018-12-08T11:35:40.070Z,990.97
2018-12-08T11:36:40.058Z,991.01
2018-12-08T11:37:40.035Z,991.02
2018-12-08T11:38:40.017Z,991.05
2018-12-08T11:39:39.997Z,991.05
2018-12-08T11:40:39.978Z,991.05
2018-12-08T11:41:39.961Z,991.03
2018-12-08T11:42:39.943Z,991.02
2018-12-08T11:43:39.924Z,990.99
2018-12-08T11:44:39.904Z,991.09
2018-12-08T11:45:39.885Z,990.97
2018-12-08T11:46:39.868Z,991.08
2018-12-08T11:47:39.848Z,991.12
2018-12-08T11:48:39.833Z,991.20
2018-12-08T11:49:39.814Z,991.06
2018-12-08T11:50:39.795Z,991.15
2018-12-08T11:51:39.780Z,991.04
2018-12-08T11:52:39.759Z,991.07
2018-12-08T11:53:39.743Z,991.04
2018-12-08T11:54:39.721Z,991.02
2018-12-08T11:55:39.700Z,991.01
2018-12-08T11:56:39.685Z,991.04
2018-12-08T11:57:39.668Z,991.03
2018-12-08T11:58:39.641Z,991.09
2018-12-08T11:59:39.633Z,991.03
2018-12-08T12:00:39.615Z,991.07
2018-12-08T12:01:39.597Z,991.08
2018-12-08T12:02:39.576Z,991.08
2018-12-08T12:03:39.562Z,991.07
2018-12-08T12:04:39.541Z,991.00
2018-12-08T12:05:39.526Z,990.96
2018-12-08T12:06:39.506Z,990.96
2018-12-08T12:07:39.489Z,990.97
2018-12-08T12:08:39.468Z,990.95
2018-12-08T12:09:39.452Z,991.06
2018-12-08T12:10:39.431Z,991.02
2018-12-08T12:11:39.414Z,990.93
2018-12-08T12:12:39.404Z,990.76
2018-12-08T12:13:39.379Z,990.89
2018-12-08T12:14:39.363Z,990.96
2018-12-08T12:15:39.346Z,990.87
2018-12-08T12:16:39.330Z,991.02
2018-12-08T12:17:39.308Z,991.00
2018-12-08T12:18:39.289Z,991.11
2018-12-08T12:19:39.278Z,991.00
2018-12-08T12:20:39.253Z,990.89
2018-12-08T12:21:39.236Z,991.04
2018-12-08T12:22:39.218Z,990.99
2018-12-08T12:23:39.296Z,990.99
2018-12-08T12:24:39.182Z,990.98
2018-12-08T12:25:39.166Z,991.01
2018-12-08T12:26:39.141Z,990.91
2018-12-08T12:27:39.127Z,990.99
2018-12-08T12:28:39.110Z,990.88